Time;durP1;ratioP1;P1;durP2;ratioP2;P2;SDS_P1;SDS_P2;PMS_P1;PMS_P2;Temp;Humidity;BMP_temperature;BMP_pressure;BME280_temperature;BME280_humidity;BME280_pressure;Samples;Min_cycle;Max_cycle;Signal;HPM_P1;HPM_P2
2024/01/04 00:02:17;;;;;;;3.33;0.50;;;7.60;99.90;;;;;;4912276;29;20720;-55
2024/01/04 00:04:43;;;;;;;2.27;0.40;;;7.70;99.90;;;;;;4913749;29;20710;-54
2024/01/04 00:07:08;;;;;;;1.03;0.40;;;7.70;99.90;;;;;;4908685;29;20214;-57
2024/01/04 00:09:34;;;;;;;5.00;0.40;;;7.70;99.90;;;;;;4908283;29;20757;-56
2024/01/04 00:11:59;;;;;;;3.53;0.60;;;7.60;99.90;;;;;;4915653;29;20558;-57
2024/01/04 00:14:25;;;;;;;3.60;0.47;;;7.60;99.90;;;;;;4916180;29;20191;-57
2024/01/04 00:16:51;;;;;;;5.37;0.83;;;7.60;99.90;;;;;;4906061;29;20207;-56
2024/01/04 00:19:16;;;;;;;2.40;0.63;;;7.50;99.90;;;;;;4904962;29;20224;-54
2024/01/04 00:21:42;;;;;;;0.67;0.40;;;7.50;99.90;;;;;;4914234;29;20679;-56
2024/01/04 00:24:07;;;;;;;3.40;0.73;;;7.50;99.90;;;;;;4908207;29;20282;-55
2024/01/04 00:26:33;;;;;;;6.70;0.70;;;7.50;99.90;;;;;;4908113;29;20611;-55
2024/01/04 00:28:59;;;;;;;4.73;0.70;;;7.50;99.90;;;;;;4908418;29;20223;-53
2024/01/04 00:31:25;;;;;;;4.20;0.80;;;7.40;99.90;;;;;;4916021;29;20630;-57
2024/01/04 00:33:51;;;;;;;2.27;0.80;;;7.40;99.90;;;;;;4907322;29;20215;-53
2024/01/04 00:36:16;;;;;;;0.57;0.40;;;7.50;99.90;;;;;;4902954;29;20192;-53
2024/01/04 00:38:42;;;;;;;1.00;0.50;;;7.40;99.90;;;;;;4898674;29;20228;-55
2024/01/04 00:41:08;;;;;;;1.80;0.50;;;7.40;99.90;;;;;;4911665;29;20236;-55
2024/01/04 00:43:33;;;;;;;2.80;0.50;;;7.40;99.90;;;;;;4911869;29;20689;-54
2024/01/04 00:45:59;;;;;;;1.33;0.40;;;7.30;99.90;;;;;;4912753;29;20196;-54
2024/01/04 00:48:25;;;;;;;1.93;0.40;;;7.30;99.90;;;;;;4911443;29;20223;-54
2024/01/04 00:50:50;;;;;;;1.73;0.40;;;7.20;99.90;;;;;;4907650;29;20195;-53
2024/01/04 00:53:16;;;;;;;1.47;0.30;;;7.20;99.90;;;;;;4914879;29;20192;-53
2024/01/04 00:55:41;;;;;;;1.10;0.40;;;7.10;99.90;;;;;;4907839;29;20184;-53
2024/01/04 00:58:07;;;;;;;1.50;0.50;;;7.00;99.90;;;;;;4915458;29;20184;-54
2024/01/04 01:00:33;;;;;;;0.23;0.23;;;7.00;99.90;;;;;;4915193;29;20278;-51
2024/01/04 01:02:59;;;;;;;0.30;0.27;;;7.00;99.90;;;;;;4903862;29;20215;-53
2024/01/04 01:05:24;;;;;;;0.30;0.30;;;6.90;99.90;;;;;;4911316;29;20210;-53
2024/01/04 01:07:50;;;;;;;1.83;0.30;;;6.90;99.90;;;;;;4905690;29;20192;-53
2024/01/04 01:10:16;;;;;;;0.20;0.20;;;6.80;99.90;;;;;;4909748;29;20352;-49
2024/01/04 01:12:41;;;;;;;2.10;0.20;;;6.70;99.90;;;;;;4905696;29;20180;-53
2024/01/04 01:15:07;;;;;;;0.30;0.27;;;6.70;99.90;;;;;;4901385;29;20240;-52
2024/01/04 01:17:33;;;;;;;1.07;0.23;;;6.60;99.90;;;;;;4898910;29;20191;-51
2024/01/04 01:19:59;;;;;;;0.80;0.20;;;6.70;99.90;;;;;;4899846;29;20228;-53
2024/01/04 01:22:26;;;;;;;1.57;0.20;;;6.70;99.90;;;;;;4906884;29;20208;-55
2024/01/04 01:24:52;;;;;;;2.80;0.30;;;6.70;99.90;;;;;;4903654;29;20301;-51
2024/01/04 01:27:18;;;;;;;0.57;0.20;;;6.70;99.90;;;;;;4904358;29;20788;-51
2024/01/04 01:29:43;;;;;;;0.97;0.20;;;6.70;99.90;;;;;;4897632;29;20746;-55
2024/01/04 01:32:09;;;;;;;0.20;0.20;;;6.70;99.90;;;;;;4902310;29;20276;-52
2024/01/04 01:34:34;;;;;;;0.50;0.20;;;6.60;99.90;;;;;;4896431;29;20192;-53
2024/01/04 01:37:00;;;;;;;0.20;0.20;;;6.70;99.90;;;;;;4904109;29;20185;-52
2024/01/04 01:39:26;;;;;;;0.30;0.20;;;6.60;99.90;;;;;;4896143;29;20220;-51
2024/01/04 01:41:51;;;;;;;0.70;0.30;;;6.60;99.90;;;;;;4905732;29;20200;-56
2024/01/04 01:44:18;;;;;;;0.20;0.20;;;6.60;99.90;;;;;;4901526;29;20196;-52
2024/01/04 01:46:45;;;;;;;2.00;0.20;;;6.60;99.90;;;;;;4903731;29;20239;-56
2024/01/04 01:49:10;;;;;;;0.20;0.10;;;6.60;99.90;;;;;;4902035;29;20291;-52
2024/01/04 01:51:36;;;;;;;0.20;0.20;;;6.60;99.90;;;;;;4903648;29;20279;-51
2024/01/04 01:54:04;;;;;;;0.57;0.30;;;6.60;99.90;;;;;;4903079;29;20196;-54
2024/01/04 01:56:30;;;;;;;0.23;0.23;;;6.70;99.90;;;;;;4896183;29;20240;-53
2024/01/04 01:58:57;;;;;;;0.20;0.20;;;6.70;99.90;;;;;;4906468;29;20204;-52
2024/01/04 02:01:23;;;;;;;0.87;0.30;;;6.70;99.90;;;;;;4908145;29;20195;-55
2024/01/04 02:03:50;;;;;;;0.20;0.20;;;6.80;99.90;;;;;;4895115;29;20275;-53
2024/01/04 02:06:15;;;;;;;0.60;0.20;;;6.70;99.90;;;;;;4895811;29;20196;-51
2024/01/04 02:08:44;;;;;;;0.80;0.20;;;6.70;99.90;;;;;;4903782;29;20220;-51
2024/01/04 02:11:09;;;;;;;0.27;0.20;;;6.70;99.90;;;;;;4902062;29;20252;-51
2024/01/04 02:13:35;;;;;;;0.20;0.20;;;6.70;99.90;;;;;;4902840;29;20659;-57
2024/01/04 02:16:01;;;;;;;0.73;0.30;;;6.80;99.90;;;;;;4899152;29;20659;-53
2024/01/04 02:18:26;;;;;;;0.60;0.30;;;6.80;99.90;;;;;;4907147;29;20257;-52
2024/01/04 02:20:52;;;;;;;0.93;0.30;;;6.80;99.90;;;;;;4903267;29;20192;-51
2024/01/04 02:23:18;;;;;;;0.47;0.30;;;6.80;99.90;;;;;;4894924;29;20195;-55
2024/01/04 02:25:44;;;;;;;0.90;0.40;;;6.80;99.90;;;;;;4896932;29;20185;-50
2024/01/04 02:28:09;;;;;;;1.77;0.57;;;6.80;99.90;;;;;;4901554;29;20677;-51
2024/01/04 02:30:35;;;;;;;2.23;0.33;;;6.80;99.90;;;;;;4895134;29;20689;-56
2024/01/04 02:33:01;;;;;;;0.97;0.37;;;6.90;99.90;;;;;;4893658;29;20593;-55
2024/01/04 02:35:27;;;;;;;1.20;0.33;;;6.90;99.90;;;;;;4895366;29;20236;-56
2024/01/04 02:37:52;;;;;;;0.57;0.33;;;7.00;99.90;;;;;;4894290;29;20265;-52
2024/01/04 02:40:18;;;;;;;0.67;0.30;;;7.00;99.90;;;;;;4895279;29;20220;-55
2024/01/04 02:42:44;;;;;;;0.70;0.60;;;7.10;99.90;;;;;;4894473;29;20699;-50
2024/01/04 02:45:10;;;;;;;0.47;0.30;;;7.10;99.90;;;;;;4899752;29;20227;-57
2024/01/04 02:47:36;;;;;;;0.90;0.50;;;7.10;99.90;;;;;;4919778;29;20192;-53
2024/01/04 02:50:02;;;;;;;0.40;0.40;;;7.10;99.90;;;;;;4905826;29;20207;-53
2024/01/04 02:52:28;;;;;;;0.40;0.30;;;7.20;99.90;;;;;;4905887;29;20631;-53
2024/01/04 02:54:54;;;;;;;4.53;1.10;;;7.20;99.90;;;;;;4910980;29;20196;-50
2024/01/04 02:57:19;;;;;;;1.10;0.50;;;7.20;99.90;;;;;;4902934;29;20187;-57
2024/01/04 02:59:45;;;;;;;0.23;0.23;;;7.20;99.90;;;;;;4902535;29;20674;-53
2024/01/04 03:02:10;;;;;;;0.40;0.30;;;7.20;99.90;;;;;;4894797;29;20188;-50
2024/01/04 03:04:40;;;;;;;0.67;0.40;;;7.20;99.90;;;;;;4902587;29;20652;-56
2024/01/04 03:07:06;;;;;;;3.17;0.40;;;7.20;99.90;;;;;;4913325;29;20195;-53
2024/01/04 03:09:32;;;;;;;2.10;0.60;;;7.20;99.90;;;;;;4905954;29;20216;-57
2024/01/04 03:11:57;;;;;;;0.73;0.50;;;7.20;99.90;;;;;;4912770;29;20180;-51
2024/01/04 03:14:23;;;;;;;2.53;0.40;;;7.20;99.90;;;;;;4899496;29;20193;-54
2024/01/04 03:16:48;;;;;;;4.47;2.30;;;7.20;99.90;;;;;;4902265;29;20191;-56
2024/01/04 03:19:14;;;;;;;1.00;0.60;;;7.20;99.90;;;;;;4907096;29;20324;-53
2024/01/04 03:21:40;;;;;;;1.63;0.70;;;7.20;99.90;;;;;;4905163;29;20199;-53
2024/01/04 03:24:05;;;;;;;1.27;0.90;;;7.20;99.90;;;;;;4912680;29;20501;-52
2024/01/04 03:26:32;;;;;;;1.17;0.70;;;7.20;99.90;;;;;;4905963;29;20196;-57
2024/01/04 03:28:57;;;;;;;2.67;1.23;;;7.20;99.90;;;;;;4910011;29;20371;-53
2024/01/04 03:31:23;;;;;;;2.30;0.80;;;7.30;99.90;;;;;;4900850;29;20199;-56
2024/01/04 03:33:49;;;;;;;2.20;0.90;;;7.30;99.90;;;;;;4910530;29;20199;-52
2024/01/04 03:36:15;;;;;;;2.97;0.90;;;7.30;99.90;;;;;;4902356;29;20196;-55
2024/01/04 03:38:41;;;;;;;2.87;1.17;;;7.30;99.90;;;;;;4909819;29;20295;-54
2024/01/04 03:41:07;;;;;;;1.30;1.00;;;7.30;99.90;;;;;;4909831;29;20217;-55
2024/01/04 03:43:33;;;;;;;1.97;0.90;;;7.40;99.90;;;;;;4916207;29;20199;-56
2024/01/04 03:45:59;;;;;;;3.60;1.17;;;7.30;99.90;;;;;;4916642;29;20182;-53
2024/01/04 03:48:25;;;;;;;2.77;1.33;;;7.30;99.90;;;;;;4916633;29;20196;-54
2024/01/04 03:50:50;;;;;;;2.47;0.87;;;7.40;99.90;;;;;;4916571;29;20203;-54
2024/01/04 03:53:16;;;;;;;3.73;1.00;;;7.30;99.90;;;;;;4903180;29;20207;-52
2024/01/04 03:55:41;;;;;;;2.83;0.90;;;7.30;99.90;;;;;;4906644;29;20268;-52
2024/01/04 03:58:07;;;;;;;3.63;0.80;;;7.30;99.90;;;;;;4916448;29;20183;-53
2024/01/04 04:00:33;;;;;;;1.37;0.60;;;7.30;99.90;;;;;;4916381;29;20203;-54
2024/01/04 04:02:58;;;;;;;1.83;0.67;;;7.20;99.90;;;;;;4915640;29;20196;-51
2024/01/04 04:05:24;;;;;;;1.20;0.73;;;7.20;99.90;;;;;;4915074;29;20206;-52
2024/01/04 04:07:49;;;;;;;1.90;0.70;;;7.20;99.90;;;;;;4905953;29;20286;-57
2024/01/04 04:10:16;;;;;;;1.30;0.60;;;7.20;99.90;;;;;;4910569;29;20255;-55
2024/01/04 04:12:41;;;;;;;4.17;1.00;;;7.20;99.90;;;;;;4899006;29;20240;-56
2024/01/04 04:15:08;;;;;;;1.00;0.80;;;7.20;99.90;;;;;;4908721;29;20196;-54
2024/01/04 04:17:34;;;;;;;3.27;1.30;;;7.20;99.90;;;;;;4916110;29;20195;-52
2024/01/04 04:20:00;;;;;;;1.40;0.90;;;7.20;99.90;;;;;;4915680;29;20235;-52
2024/01/04 04:22:25;;;;;;;3.43;1.07;;;7.10;99.90;;;;;;4907737;29;20243;-55
2024/01/04 04:24:51;;;;;;;2.43;1.00;;;7.10;99.90;;;;;;4915739;29;20247;-52
2024/01/04 04:27:16;;;;;;;3.67;0.80;;;7.20;99.90;;;;;;4916070;29;20223;-54
2024/01/04 04:29:42;;;;;;;1.63;0.83;;;7.10;99.90;;;;;;4908120;29;20710;-52
2024/01/04 04:32:08;;;;;;;3.67;0.90;;;7.10;99.90;;;;;;4907819;29;20187;-55
2024/01/04 04:34:34;;;;;;;3.83;1.30;;;7.10;99.90;;;;;;4915852;29;20199;-52
2024/01/04 04:37:00;;;;;;;2.40;1.10;;;7.10;99.90;;;;;;4912848;29;20185;-52
2024/01/04 04:39:26;;;;;;;4.10;1.40;;;7.10;99.90;;;;;;4911832;29;20216;-57
2024/01/04 04:41:52;;;;;;;2.57;1.20;;;7.10;99.90;;;;;;4915615;29;20274;-54
2024/01/04 04:44:17;;;;;;;2.20;1.03;;;7.00;99.90;;;;;;4917005;29;20278;-52
2024/01/04 04:46:43;;;;;;;5.23;2.00;;;7.00;99.90;;;;;;4915009;29;20351;-53
2024/01/04 04:49:08;;;;;;;4.50;1.17;;;7.10;99.90;;;;;;4909812;29;20712;-53
2024/01/04 04:51:34;;;;;;;3.70;1.57;;;7.10;99.90;;;;;;4908871;29;20640;-52
2024/01/04 04:54:00;;;;;;;3.87;1.60;;;7.10;99.90;;;;;;4908454;29;20448;-52
2024/01/04 04:56:25;;;;;;;7.37;1.73;;;7.10;99.90;;;;;;4908006;29;20574;-52
2024/01/04 04:58:51;;;;;;;9.83;1.80;;;7.20;99.90;;;;;;4915193;29;20227;-56
2024/01/04 05:01:16;;;;;;;5.10;1.87;;;7.10;99.90;;;;;;4910116;29;20274;-54
2024/01/04 05:03:42;;;;;;;5.33;1.80;;;7.10;99.90;;;;;;4912225;29;20191;-52
2024/01/04 05:06:08;;;;;;;3.70;1.90;;;7.10;99.90;;;;;;4915545;29;20727;-54
2024/01/04 05:08:34;;;;;;;3.90;1.90;;;7.10;99.90;;;;;;4915380;29;20723;-53
2024/01/04 05:10:59;;;;;;;5.17;1.90;;;7.10;99.90;;;;;;4914880;29;20328;-51
2024/01/04 05:13:25;;;;;;;7.37;2.20;;;7.10;99.90;;;;;;4908324;29;20649;-53
2024/01/04 05:15:50;;;;;;;6.40;2.33;;;7.10;99.90;;;;;;4906472;29;20194;-58
2024/01/04 05:18:16;;;;;;;9.13;2.20;;;7.10;99.90;;;;;;4914806;29;20204;-54
2024/01/04 05:20:42;;;;;;;6.37;1.90;;;7.10;99.90;;;;;;4914203;29;20184;-52
2024/01/04 05:23:07;;;;;;;5.37;1.90;;;7.10;99.90;;;;;;4903559;29;20194;-55
2024/01/04 05:25:33;;;;;;;3.23;1.80;;;7.10;99.90;;;;;;4904274;29;20199;-54
2024/01/04 05:27:59;;;;;;;3.43;2.10;;;7.10;99.90;;;;;;4910381;29;20203;-52
2024/01/04 05:30:25;;;;;;;4.93;2.00;;;7.10;99.90;;;;;;4903841;29;20236;-54
2024/01/04 05:32:50;;;;;;;6.10;2.10;;;7.10;99.90;;;;;;4904922;29;20195;-52
2024/01/04 05:35:16;;;;;;;4.87;2.00;;;7.20;99.90;;;;;;4907184;29;20230;-52
2024/01/04 05:37:42;;;;;;;5.80;2.17;;;7.10;99.90;;;;;;4906741;29;20247;-53
2024/01/04 05:40:09;;;;;;;6.07;2.30;;;7.20;99.90;;;;;;4914561;29;20599;-52
2024/01/04 05:42:35;;;;;;;4.80;2.10;;;7.20;99.90;;;;;;4913940;29;20282;-55
2024/01/04 05:45:00;;;;;;;4.87;1.70;;;7.10;99.90;;;;;;4914460;29;20283;-52
2024/01/04 05:47:26;;;;;;;2.83;2.13;;;7.10;99.90;;;;;;4908141;29;20196;-53
2024/01/04 05:49:51;;;;;;;3.17;1.67;;;7.10;99.90;;;;;;4905456;29;20251;-52
2024/01/04 05:52:17;;;;;;;4.73;1.93;;;7.10;99.90;;;;;;4913977;29;20196;-56
2024/01/04 05:54:42;;;;;;;7.23;2.07;;;7.10;99.90;;;;;;4914325;29;20200;-50
2024/01/04 05:57:08;;;;;;;11.17;4.43;;;7.10;99.90;;;;;;4914443;29;20188;-55
2024/01/04 05:59:34;;;;;;;7.53;2.00;;;7.10;99.90;;;;;;4906844;29;20208;-52
2024/01/04 06:02:00;;;;;;;5.50;2.27;;;7.10;99.90;;;;;;4912872;29;20255;-56
2024/01/04 06:04:26;;;;;;;4.33;1.70;;;7.10;99.90;;;;;;4907892;29;20633;-52
2024/01/04 06:06:53;;;;;;;4.60;1.80;;;7.00;99.90;;;;;;4913064;29;20620;-52
2024/01/04 06:09:20;;;;;;;6.97;1.80;;;6.90;99.90;;;;;;4908645;29;20254;-55
2024/01/04 06:11:46;;;;;;;5.67;1.90;;;7.00;99.90;;;;;;4911739;29;20196;-52
2024/01/04 06:14:12;;;;;;;4.20;2.10;;;7.00;99.90;;;;;;4913549;29;20191;-54
2024/01/04 06:16:38;;;;;;;5.00;2.10;;;7.00;99.90;;;;;;4914360;29;20192;-53
2024/01/04 06:19:04;;;;;;;5.07;1.67;;;7.10;99.90;;;;;;4913930;29;20691;-53
2024/01/04 06:21:29;;;;;;;7.23;2.27;;;7.10;99.90;;;;;;4906569;29;20223;-57
2024/01/04 06:23:56;;;;;;;7.97;2.90;;;7.10;99.90;;;;;;4913241;29;20196;-51
2024/01/04 06:26:23;;;;;;;6.03;2.57;;;7.10;99.90;;;;;;4913795;29;20228;-53
2024/01/04 06:28:49;;;;;;;6.70;1.77;;;7.20;99.90;;;;;;4913325;29;20246;-53
2024/01/04 06:31:14;;;;;;;3.50;1.70;;;7.20;99.90;;;;;;4913856;29;20658;-55
2024/01/04 06:33:40;;;;;;;2.23;1.17;;;7.20;99.90;;;;;;4905445;29;20583;-57
2024/01/04 06:36:07;;;;;;;1.87;1.10;;;7.20;99.90;;;;;;4914038;29;20240;-52
2024/01/04 06:38:35;;;;;;;2.50;1.07;;;7.20;99.90;;;;;;4907081;29;20215;-48
2024/01/04 06:41:02;;;;;;;2.50;1.33;;;7.20;99.90;;;;;;4913358;29;20190;-51
2024/01/04 06:43:28;;;;;;;2.10;1.20;;;7.20;99.90;;;;;;4905412;29;20199;-51
2024/01/04 06:45:54;;;;;;;2.37;1.33;;;7.10;99.90;;;;;;4905928;29;20188;-50
2024/01/04 06:48:19;;;;;;;1.43;1.00;;;7.20;99.90;;;;;;4913654;29;20266;-51
2024/01/04 06:50:45;;;;;;;4.63;1.23;;;7.10;99.90;;;;;;4904781;29;20224;-49
2024/01/04 06:53:14;;;;;;;1.63;0.90;;;7.20;99.90;;;;;;4906230;29;20267;-49
2024/01/04 06:55:40;;;;;;;2.70;1.10;;;7.20;99.90;;;;;;4912957;29;20690;-54
2024/01/04 06:58:05;;;;;;;1.57;1.00;;;7.10;99.90;;;;;;4906864;29;20183;-50
2024/01/04 07:00:31;;;;;;;1.03;0.73;;;7.10;99.90;;;;;;4913422;29;20220;-49
2024/01/04 07:02:58;;;;;;;1.60;0.80;;;7.10;99.90;;;;;;4912493;29;20196;-50
2024/01/04 07:05:24;;;;;;;0.97;0.70;;;7.10;99.90;;;;;;4905755;29;20226;-50
2024/01/04 07:07:49;;;;;;;1.33;0.90;;;7.00;99.90;;;;;;4913223;29;20195;-50
2024/01/04 07:10:15;;;;;;;0.80;0.50;;;7.00;99.90;;;;;;4913464;29;20702;-49
2024/01/04 07:12:43;;;;;;;1.90;0.57;;;7.10;99.90;;;;;;4912264;29;20813;-49
2024/01/04 07:15:09;;;;;;;1.00;0.60;;;7.10;99.90;;;;;;4904915;29;20221;-52
2024/01/04 07:17:34;;;;;;;2.53;0.70;;;7.10;99.90;;;;;;4906252;29;20196;-49
2024/01/04 07:20:00;;;;;;;1.30;0.60;;;7.10;99.90;;;;;;4912466;29;20640;-49
2024/01/04 07:22:27;;;;;;;0.83;0.50;;;7.00;99.90;;;;;;4912544;29;20827;-55
2024/01/04 07:24:53;;;;;;;0.40;0.40;;;7.00;99.90;;;;;;4905781;29;20184;-49
2024/01/04 07:27:19;;;;;;;1.20;0.60;;;6.90;99.90;;;;;;4912874;29;20266;-52
2024/01/04 07:29:46;;;;;;;1.63;0.70;;;6.90;99.90;;;;;;4912832;29;20663;-51
2024/01/04 07:32:11;;;;;;;1.10;0.80;;;6.90;99.90;;;;;;4912342;29;20314;-49
2024/01/04 07:34:41;;;;;;;6.73;3.27;;;6.80;99.90;;;;;;4912732;29;20263;-50
2024/01/04 07:37:07;;;;;;;6.73;3.07;;;6.70;99.90;;;;;;4894794;29;20563;-49
2024/01/04 07:39:33;;;;;;;1.20;0.83;;;6.70;99.90;;;;;;4908991;29;20212;-53
2024/01/04 07:41:59;;;;;;;1.00;0.90;;;6.70;99.90;;;;;;4911780;29;20180;-50
2024/01/04 07:44:24;;;;;;;2.57;1.00;;;6.60;99.90;;;;;;4913027;29;20195;-53
2024/01/04 07:46:50;;;;;;;2.80;1.80;;;6.60;99.90;;;;;;4912308;29;20719;-49
2024/01/04 07:49:15;;;;;;;2.07;1.33;;;6.60;99.90;;;;;;4911829;29;20825;-50
2024/01/04 07:51:42;;;;;;;2.23;1.23;;;6.70;99.90;;;;;;4912127;29;20198;-50
2024/01/04 07:54:08;;;;;;;1.73;1.10;;;6.60;99.90;;;;;;4911853;29;20578;-46
2024/01/04 07:56:33;;;;;;;1.03;0.80;;;6.60;99.90;;;;;;4905539;29;20189;-50
2024/01/04 07:58:59;;;;;;;3.20;1.00;;;6.60;99.90;;;;;;4911574;29;20751;-50
2024/01/04 08:01:24;;;;;;;2.57;0.70;;;6.60;99.90;;;;;;4906554;29;20205;-47
2024/01/04 08:03:50;;;;;;;2.77;0.63;;;6.60;99.90;;;;;;4902279;29;20416;-50
2024/01/04 08:06:15;;;;;;;1.63;0.77;;;6.70;99.90;;;;;;4907574;29;20196;-50
2024/01/04 08:08:41;;;;;;;1.10;0.70;;;6.60;99.90;;;;;;4909391;29;20705;-49
2024/01/04 08:11:09;;;;;;;1.67;0.93;;;6.70;99.90;;;;;;4904430;29;20187;-50
2024/01/04 08:13:35;;;;;;;4.90;0.80;;;6.70;99.90;;;;;;4911614;29;20227;-51
2024/01/04 08:16:01;;;;;;;0.73;0.60;;;6.70;99.90;;;;;;4911858;29;20204;-54
2024/01/04 08:18:27;;;;;;;1.70;0.73;;;6.70;99.90;;;;;;4910352;29;20203;-49
2024/01/04 08:20:52;;;;;;;1.00;0.57;;;6.70;99.90;;;;;;4912027;29;20654;-52
2024/01/04 08:23:18;;;;;;;2.27;1.27;;;6.70;99.90;;;;;;4904142;29;20237;-50
2024/01/04 08:25:44;;;;;;;1.30;0.80;;;6.70;99.90;;;;;;4905913;29;20184;-49
2024/01/04 08:28:10;;;;;;;0.80;0.60;;;6.70;99.90;;;;;;4911562;29;20253;-49
2024/01/04 08:30:35;;;;;;;0.90;0.50;;;6.70;99.90;;;;;;4904527;29;20211;-49
2024/01/04 08:33:01;;;;;;;1.43;0.70;;;6.70;99.90;;;;;;4906871;29;20548;-52
2024/01/04 08:35:27;;;;;;;2.50;0.77;;;6.60;99.90;;;;;;4915439;29;20188;-48
2024/01/04 08:37:52;;;;;;;1.13;0.60;;;6.60;99.90;;;;;;4911314;29;20200;-50
2024/01/04 08:40:18;;;;;;;1.47;0.70;;;6.60;99.90;;;;;;4907634;29;20207;-49
2024/01/04 08:42:44;;;;;;;3.43;1.00;;;6.60;99.90;;;;;;4902436;29;20204;-51
2024/01/04 08:45:13;;;;;;;2.77;1.03;;;6.70;99.90;;;;;;4908376;29;20663;-53
2024/01/04 08:47:39;;;;;;;1.63;1.20;;;6.70;99.90;;;;;;4915012;29;20196;-54
2024/01/04 08:50:06;;;;;;;2.50;1.50;;;6.70;99.90;;;;;;4914626;29;20210;-52
2024/01/04 08:52:31;;;;;;;5.37;2.00;;;6.80;99.90;;;;;;4905152;29;20541;-53
2024/01/04 08:54:58;;;;;;;4.17;1.80;;;6.80;99.90;;;;;;4899290;29;21273;-51
2024/01/04 08:57:24;;;;;;;2.90;1.50;;;6.80;99.90;;;;;;4907396;29;20180;-53
2024/01/04 08:59:50;;;;;;;3.37;1.80;;;6.90;99.90;;;;;;4899712;29;20524;-49
2024/01/04 09:02:16;;;;;;;3.83;2.13;;;6.90;99.90;;;;;;4914036;29;20203;-52
2024/01/04 09:04:41;;;;;;;3.23;2.10;;;7.00;99.90;;;;;;4914692;29;20199;-49
2024/01/04 09:07:08;;;;;;;3.23;1.90;;;7.00;99.90;;;;;;4907424;29;20264;-51
2024/01/04 09:09:34;;;;;;;7.37;1.90;;;7.10;99.90;;;;;;4914587;29;20218;-54
2024/01/04 09:12:00;;;;;;;3.50;2.10;;;7.10;99.90;;;;;;4914160;29;20191;-55
2024/01/04 09:14:25;;;;;;;3.80;1.70;;;7.10;99.90;;;;;;4914773;29;20195;-52
2024/01/04 09:16:51;;;;;;;3.53;2.10;;;7.10;99.90;;;;;;4914327;29;20274;-50
2024/01/04 09:19:18;;;;;;;2.20;1.50;;;7.10;99.90;;;;;;4901930;29;20248;-52
2024/01/04 09:21:46;;;;;;;3.50;1.30;;;7.20;99.90;;;;;;4895956;29;20570;-49
2024/01/04 09:24:12;;;;;;;5.53;3.00;;;7.30;99.90;;;;;;4907296;29;21440;-53
2024/01/04 09:26:42;;;;;;;11.43;4.20;;;7.30;99.90;;;;;;4906799;29;20192;-50
2024/01/04 09:29:08;;;;;;;8.27;2.57;;;7.30;99.90;;;;;;4906975;29;20212;-48
2024/01/04 09:31:34;;;;;;;7.10;2.97;;;7.30;99.90;;;;;;4906762;29;20180;-49
2024/01/04 09:34:00;;;;;;;6.30;3.07;;;7.30;99.90;;;;;;4910508;29;20467;-52
2024/01/04 09:36:25;;;;;;;5.37;2.07;;;7.30;99.90;;;;;;4909355;29;20219;-51
2024/01/04 09:38:51;;;;;;;4.27;1.90;;;7.30;99.90;;;;;;4898340;29;20204;-51
2024/01/04 09:41:22;;;;;;;7.03;2.03;;;7.30;99.90;;;;;;4906799;29;20184;-50
2024/01/04 09:43:56;;;;;;;8.77;2.73;;;7.40;99.90;;;;;;4906063;29;20185;-56
2024/01/04 09:46:25;;;;;;;4.43;1.80;;;7.40;99.90;;;;;;4904430;29;20187;-54
2024/01/04 09:49:01;;;;;;;6.60;1.93;;;7.40;99.90;;;;;;4912016;29;20200;-54
2024/01/04 09:51:38;;;;;;;4.93;1.40;;;7.50;99.90;;;;;;4906438;29;20187;-52
2024/01/04 09:54:09;;;;;;;4.47;1.67;;;7.50;99.90;;;;;;4902595;29;20283;-54
2024/01/04 09:56:40;;;;;;;5.43;1.50;;;7.50;99.90;;;;;;4902705;29;20195;-53
2024/01/04 09:59:07;;;;;;;3.83;1.47;;;7.50;99.90;;;;;;4897673;29;20215;-51
2024/01/04 10:01:35;;;;;;;3.67;1.70;;;7.50;99.90;;;;;;4912789;29;20669;-55
2024/01/04 10:04:11;;;;;;;3.40;1.20;;;7.60;99.90;;;;;;4912871;29;20196;-52
2024/01/04 10:06:38;;;;;;;4.83;1.60;;;7.60;99.90;;;;;;4913704;29;20199;-54
2024/01/04 10:09:51;;;;;;;1.50;1.20;;;7.50;99.90;;;;;;4905864;29;20215;-56
2024/01/04 10:12:17;;;;;;;1.87;0.77;;;7.30;99.90;;;;;;4859323;29;20230;-53
2024/01/04 10:14:42;;;;;;;1.90;0.90;;;7.30;99.90;;;;;;4865362;29;20287;-55
2024/01/04 10:17:11;;;;;;;1.93;0.80;;;7.20;99.90;;;;;;4884104;29;20196;-55
2024/01/04 10:19:37;;;;;;;2.40;0.80;;;7.20;99.90;;;;;;4913246;29;20731;-52
2024/01/04 10:22:04;;;;;;;1.77;1.23;;;7.20;99.90;;;;;;4905253;29;20411;-54
2024/01/04 10:24:37;;;;;;;1.70;1.17;;;7.30;99.90;;;;;;4913342;29;20564;-53
2024/01/04 10:27:03;;;;;;;8.37;1.97;;;7.30;99.90;;;;;;4910864;29;20271;-55
2024/01/04 10:29:30;;;;;;;2.47;1.60;;;7.20;99.90;;;;;;4902322;29;20219;-52
2024/01/04 10:31:59;;;;;;;2.30;0.90;;;7.10;99.90;;;;;;4911723;29;20188;-53
2024/01/04 10:34:25;;;;;;;1.53;0.90;;;7.20;99.90;;;;;;4913100;29;20326;-57
2024/01/04 10:36:51;;;;;;;2.20;0.90;;;7.10;99.90;;;;;;4911647;29;20200;-52
2024/01/04 10:39:20;;;;;;;2.00;1.27;;;7.10;99.90;;;;;;4907174;29;20582;-54
2024/01/04 10:42:07;;;;;;;2.13;1.10;;;7.20;99.90;;;;;;4912456;29;20192;-53
2024/01/04 10:44:33;;;;;;;2.40;1.40;;;7.20;99.90;;;;;;4909208;29;20192;-53
2024/01/04 10:47:00;;;;;;;4.77;1.23;;;7.30;99.90;;;;;;4910591;29;20682;-54
2024/01/04 10:49:26;;;;;;;1.43;0.87;;;7.40;99.90;;;;;;4899543;29;20628;-57
2024/01/04 10:51:54;;;;;;;4.63;1.40;;;7.50;99.90;;;;;;4912255;29;20191;-52
2024/01/04 10:54:20;;;;;;;1.83;1.47;;;7.50;99.90;;;;;;4913113;29;20643;-54
2024/01/04 10:56:47;;;;;;;3.33;1.40;;;7.60;99.90;;;;;;4912422;29;20680;-52
2024/01/04 10:59:13;;;;;;;4.10;1.63;;;7.60;99.90;;;;;;4912815;29;20825;-58
2024/01/04 11:01:41;;;;;;;2.70;1.30;;;7.70;99.90;;;;;;4912896;29;20202;-55
2024/01/04 11:04:07;;;;;;;2.97;1.53;;;7.70;99.90;;;;;;4909272;29;20192;-55
2024/01/04 11:06:40;;;;;;;4.17;1.27;;;7.80;99.90;;;;;;4908653;29;20199;-52
2024/01/04 11:09:07;;;;;;;2.07;1.37;;;8.00;99.90;;;;;;4904947;29;20298;-52
2024/01/04 11:11:34;;;;;;;1.20;0.87;;;8.10;99.90;;;;;;4912973;29;20200;-55
2024/01/04 11:14:01;;;;;;;2.50;1.27;;;8.30;99.90;;;;;;4908307;29;20656;-55
2024/01/04 11:17:08;;;;;;;2.23;1.17;;;8.30;99.90;;;;;;4907829;29;20184;-57
2024/01/04 11:19:56;;;;;;;3.63;1.00;;;8.50;99.90;;;;;;4912583;29;20231;-55
2024/01/04 11:23:08;;;;;;;1.60;1.10;;;8.50;99.90;;;;;;4912136;29;20274;-54
2024/01/04 11:25:58;;;;;;;1.03;0.87;;;8.50;99.90;;;;;;4912978;29;20195;-55
2024/01/04 11:28:24;;;;;;;2.53;1.03;;;8.60;99.90;;;;;;4898597;29;20593;-51
2024/01/04 11:30:53;;;;;;;1.03;0.80;;;8.50;99.90;;;;;;4904582;29;20661;-52
2024/01/04 11:33:21;;;;;;;4.07;0.87;;;8.40;99.90;;;;;;4911781;29;20199;-52
2024/01/04 11:35:49;;;;;;;1.17;0.80;;;8.40;99.90;;;;;;4911467;29;20235;-52
2024/01/04 11:38:30;;;;;;;2.77;1.20;;;8.40;99.90;;;;;;4906000;29;20271;-54
2024/01/04 11:40:56;;;;;;;3.53;1.00;;;8.50;99.90;;;;;;4902801;29;20207;-49
2024/01/04 11:43:22;;;;;;;3.87;1.43;;;8.40;99.90;;;;;;4906247;29;20191;-50
2024/01/04 11:45:48;;;;;;;5.13;1.30;;;8.50;99.90;;;;;;4911943;29;20192;-53
2024/01/04 11:48:17;;;;;;;2.20;1.10;;;8.50;99.90;;;;;;4912642;29;20254;-48
2024/01/04 11:50:48;;;;;;;3.87;1.17;;;8.70;99.90;;;;;;4911945;29;20656;-48
2024/01/04 11:53:15;;;;;;;3.80;1.70;;;8.80;99.90;;;;;;4912269;29;20224;-50
2024/01/04 11:55:41;;;;;;;4.77;1.67;;;8.90;99.90;;;;;;4897407;29;20188;-56
2024/01/04 11:58:10;;;;;;;2.07;1.10;;;8.80;99.90;;;;;;4904749;29;20184;-54
2024/01/04 12:00:47;;;;;;;1.97;1.20;;;8.70;99.90;;;;;;4905706;29;20274;-49
2024/01/04 12:03:15;;;;;;;1.57;1.00;;;8.60;99.90;;;;;;4897631;29;20192;-49
2024/01/04 12:05:50;;;;;;;2.40;1.53;;;8.50;99.90;;;;;;4907298;29;20205;-53
2024/01/04 12:08:31;;;;;;;1.43;0.97;;;8.50;99.90;;;;;;4904010;29;20284;-52
2024/01/04 12:10:59;;;;;;;1.40;1.00;;;8.40;99.90;;;;;;4913526;29;20226;-51
2024/01/04 12:13:25;;;;;;;2.97;1.70;;;8.20;99.90;;;;;;4907834;29;20184;-48
2024/01/04 12:15:51;;;;;;;3.67;2.00;;;8.10;99.90;;;;;;4915343;29;20202;-50
2024/01/04 12:18:17;;;;;;;5.60;2.10;;;8.20;99.90;;;;;;4907691;29;20204;-48
2024/01/04 12:20:46;;;;;;;3.70;1.53;;;8.20;99.90;;;;;;4907776;29;20188;-50
2024/01/04 12:23:12;;;;;;;2.87;1.13;;;8.20;99.90;;;;;;4914743;29;20200;-49
2024/01/04 12:25:38;;;;;;;1.97;0.90;;;8.30;99.90;;;;;;4907968;29;20196;-49
2024/01/04 12:28:06;;;;;;;2.03;1.13;;;8.20;99.90;;;;;;4912437;29;20223;-50
2024/01/04 12:30:32;;;;;;;1.70;0.53;;;8.30;99.90;;;;;;4910534;29;20621;-51
2024/01/04 12:32:58;;;;;;;1.20;0.80;;;8.30;99.90;;;;;;4905421;29;20199;-51
2024/01/04 12:35:25;;;;;;;2.80;0.90;;;8.20;99.90;;;;;;4915234;29;20586;-52
2024/01/04 12:38:04;;;;;;;2.90;2.00;;;8.30;99.90;;;;;;4907495;29;20292;-47
2024/01/04 12:40:40;;;;;;;3.07;1.77;;;8.30;99.90;;;;;;4915338;29;20238;-55
2024/01/04 12:43:12;;;;;;;2.37;1.23;;;8.30;99.90;;;;;;4911506;29;20196;-52
2024/01/04 12:45:38;;;;;;;2.47;0.87;;;8.30;99.90;;;;;;4911808;29;20274;-50
2024/01/04 12:48:05;;;;;;;1.17;0.60;;;8.40;99.90;;;;;;4914875;29;20569;-52
2024/01/04 12:50:32;;;;;;;1.17;0.57;;;8.30;99.90;;;;;;4914767;29;20220;-48
2024/01/04 12:52:58;;;;;;;2.53;0.87;;;8.30;99.90;;;;;;4914395;29;20199;-52
2024/01/04 12:55:26;;;;;;;3.47;0.80;;;8.30;99.90;;;;;;4915053;29;20195;-49
2024/01/04 12:57:52;;;;;;;5.82;1.00;;;8.30;99.90;;;;;;4914196;29;20542;-52